Time;durP1;ratioP1;P1;durP2;ratioP2;P2;SDS_P1;SDS_P2;PMS_P1;PMS_P2;Temp;Humidity;BMP_temperature;BMP_pressure;BME280_temperature;BME280_humidity;BME280_pressure;Samples;Min_cycle;Max_cycle;Signal;HPM_P1;HPM_P2
2021/10/15 00:00:49;;;;;;;5.75;3.90;;;5.40;99.90;;;;;;6195236;28;20042;-79
2021/10/15 00:03:50;;;;;;;4.57;3.70;;;;;;;;;;6194941;28;20048;-79
2021/10/15 00:06:51;;;;;;;6.72;3.78;;;5.10;99.90;;;;;;6194798;28;20460;-80
2021/10/15 00:09:51;;;;;;;9.30;4.25;;;5.20;99.90;;;;;;6178244;28;20034;-79
2021/10/15 00:12:52;;;;;;;5.43;4.07;;;5.20;99.90;;;;;;6195234;28;20034;-78
2021/10/15 00:15:53;;;;;;;4.45;3.63;;;4.90;99.90;;;;;;6195912;28;20035;-79
2021/10/15 00:18:54;;;;;;;6.28;3.50;;;5.10;99.90;;;;;;6194264;28;20022;-79
2021/10/15 00:21:55;;;;;;;5.78;3.63;;;5.30;99.90;;;;;;6194317;28;20077;-79
2021/10/15 00:24:55;;;;;;;3.83;3.10;;;5.30;99.90;;;;;;6195560;28;20057;-79
2021/10/15 00:27:56;;;;;;;4.28;3.30;;;5.00;99.90;;;;;;6178073;28;20034;-82
2021/10/15 00:30:58;;;;;;;4.80;3.78;;;5.10;99.90;;;;;;6178415;28;20030;-82
2021/10/15 00:33:58;;;;;;;3.80;3.25;;;5.20;99.90;;;;;;6195719;28;20072;-81
2021/10/15 00:36:59;;;;;;;5.68;3.47;;;5.20;99.90;;;;;;6195517;28;20123;-79
2021/10/15 00:39:59;;;;;;;3.90;3.35;;;5.30;99.90;;;;;;6195618;28;20022;-78
2021/10/15 00:43:00;;;;;;;4.60;3.30;;;5.40;99.90;;;;;;6195412;28;20042;-78
2021/10/15 00:46:01;;;;;;;3.83;3.28;;;5.20;99.90;;;;;;6195110;28;20037;-82
2021/10/15 00:49:03;;;;;;;5.07;3.17;;;5.60;99.90;;;;;;6195541;28;20030;-81
2021/10/15 00:52:05;;;;;;;3.42;3.05;;;5.20;99.90;;;;;;6193944;28;20062;-78
2021/10/15 00:55:06;;;;;;;3.85;3.20;;;5.10;99.90;;;;;;6177326;28;20046;-78
2021/10/15 00:58:06;;;;;;;6.00;3.10;;;4.90;99.90;;;;;;6177706;28;20026;-78
2021/10/15 01:01:07;;;;;;;3.70;2.97;;;5.10;99.90;;;;;;6195436;28;20030;-80
2021/10/15 01:04:08;;;;;;;3.42;3.10;;;5.00;99.90;;;;;;6193302;28;20086;-79
2021/10/15 01:07:08;;;;;;;4.35;2.95;;;5.00;99.90;;;;;;6177476;28;20034;-81
2021/10/15 01:10:09;;;;;;;5.00;3.40;;;4.90;99.90;;;;;;6160398;28;20026;-78
2021/10/15 01:13:09;;;;;;;3.92;3.08;;;5.30;99.90;;;;;;6193220;28;20066;-79
2021/10/15 01:16:11;;;;;;;3.72;2.78;;;5.40;99.90;;;;;;6193355;28;20042;-83
2021/10/15 01:19:11;;;;;;;4.57;3.08;;;5.20;99.90;;;;;;6193094;28;20022;-81
2021/10/15 01:22:12;;;;;;;4.20;3.45;;;4.80;99.90;;;;;;6193189;28;20113;-79
2021/10/15 01:25:13;;;;;;;4.03;2.97;;;5.40;99.90;;;;;;6193164;28;20077;-82
2021/10/15 01:28:13;;;;;;;4.07;3.30;;;4.80;99.90;;;;;;6193096;28;20641;-78
2021/10/15 01:31:14;;;;;;;5.95;3.58;;;4.70;99.90;;;;;;6176914;28;20369;-80
2021/10/15 01:34:14;;;;;;;3.25;2.90;;;4.60;99.90;;;;;;6193144;28;20463;-79
2021/10/15 01:37:15;;;;;;;3.83;3.00;;;5.20;99.90;;;;;;6194256;28;20551;-81
2021/10/15 01:40:15;;;;;;;3.55;3.00;;;4.50;99.90;;;;;;6193110;28;20022;-79
2021/10/15 01:43:19;;;;;;;3.75;3.00;;;4.70;99.90;;;;;;6176637;28;20046;-79
2021/10/15 01:46:20;;;;;;;3.53;3.03;;;4.70;99.90;;;;;;6192766;28;20039;-79
2021/10/15 01:49:21;;;;;;;4.03;2.60;;;4.80;99.90;;;;;;6176817;28;20076;-78
2021/10/15 01:52:22;;;;;;;4.22;3.17;;;;;;;;;;6176646;28;20149;-79
2021/10/15 01:55:22;;;;;;;3.55;3.05;;;4.70;99.90;;;;;;6194420;28;20041;-80
2021/10/15 01:58:23;;;;;;;4.28;3.10;;;4.80;99.90;;;;;;6193038;28;20034;-81
2021/10/15 02:01:25;;;;;;;5.15;3.08;;;4.90;99.90;;;;;;6193913;28;20031;-79
2021/10/15 02:04:26;;;;;;;3.40;3.00;;;;;;;;;;6193086;28;20469;-79
2021/10/15 02:07:27;;;;;;;6.00;3.03;;;;;;;;;;6196578;28;20041;-79
2021/10/15 02:10:28;;;;;;;3.75;2.53;;;;;;;;;;6198973;28;20493;-82
2021/10/15 02:13:28;;;;;;;3.65;3.00;;;4.80;99.90;;;;;;6197724;28;20114;-78
2021/10/15 02:16:29;;;;;;;2.97;2.50;;;5.10;99.90;;;;;;6180820;28;20512;-79
2021/10/15 02:19:30;;;;;;;3.45;2.85;;;;;;;;;;6164713;28;20030;-78
2021/10/15 02:22:31;;;;;;;3.30;2.63;;;;;;;;;;6196953;28;21120;-79
2021/10/15 02:25:31;;;;;;;4.32;3.00;;;4.90;99.90;;;;;;6197387;28;20030;-78
2021/10/15 02:28:32;;;;;;;6.13;3.40;;;5.00;99.90;;;;;;6197280;28;20026;-80
2021/10/15 02:31:32;;;;;;;3.67;2.80;;;5.60;99.90;;;;;;6197953;28;20037;-79
2021/10/15 02:34:33;;;;;;;3.05;2.63;;;4.60;99.90;;;;;;6197884;28;20034;-79
2021/10/15 02:37:34;;;;;;;2.92;2.53;;;4.60;99.90;;;;;;6196913;28;20444;-79
2021/10/15 02:40:34;;;;;;;3.20;2.70;;;5.60;99.90;;;;;;6196555;28;20033;-79
2021/10/15 02:43:35;;;;;;;3.45;2.70;;;4.70;99.90;;;;;;6180232;28;20054;-79
2021/10/15 02:46:35;;;;;;;3.25;2.80;;;5.10;99.90;;;;;;6180339;28;20076;-82
2021/10/15 02:49:36;;;;;;;3.80;2.53;;;4.70;99.90;;;;;;6196679;28;20062;-82
2021/10/15 02:52:37;;;;;;;3.17;2.67;;;4.70;99.90;;;;;;6196282;28;20334;-79
2021/10/15 02:55:37;;;;;;;2.90;2.40;;;4.70;99.90;;;;;;6196569;28;20042;-78
2021/10/15 02:58:38;;;;;;;3.25;2.30;;;5.40;99.90;;;;;;6196510;28;20456;-79
2021/10/15 03:01:38;;;;;;;3.05;2.55;;;5.20;99.90;;;;;;6196069;28;20023;-83
2021/10/15 03:04:39;;;;;;;4.28;2.63;;;5.40;99.90;;;;;;6196448;28;20044;-79
2021/10/15 03:07:39;;;;;;;2.88;2.53;;;5.60;99.90;;;;;;6197347;28;20022;-80
2021/10/15 03:10:40;;;;;;;2.80;2.50;;;4.40;99.90;;;;;;6197141;28;20082;-78
2021/10/15 03:13:40;;;;;;;3.42;2.55;;;4.30;99.90;;;;;;6197241;28;20026;-81
2021/10/15 03:16:41;;;;;;;3.38;2.83;;;4.30;99.90;;;;;;6179800;28;20049;-79
2021/10/15 03:19:42;;;;;;;3.22;2.70;;;4.60;99.90;;;;;;6195869;28;20453;-78
2021/10/15 03:22:42;;;;;;;3.03;2.72;;;4.30;99.90;;;;;;6195694;28;20030;-79
2021/10/15 03:25:43;;;;;;;4.85;2.97;;;4.30;99.90;;;;;;6195527;28;20014;-79
2021/10/15 03:28:43;;;;;;;3.30;2.83;;;4.40;99.90;;;;;;6195977;28;20031;-79
2021/10/15 03:31:44;;;;;;;3.13;2.70;;;5.10;99.90;;;;;;6195549;28;20417;-79
2021/10/15 03:34:44;;;;;;;3.13;2.65;;;4.60;99.90;;;;;;6195439;28;20042;-78
2021/10/15 03:37:45;;;;;;;3.00;2.58;;;5.00;99.90;;;;;;6196000;28;20049;-78
2021/10/15 03:40:46;;;;;;;2.95;2.55;;;4.70;99.90;;;;;;6196539;28;20370;-79
2021/10/15 03:43:46;;;;;;;2.88;2.50;;;4.40;99.90;;;;;;6179101;28;20046;-79
2021/10/15 03:46:47;;;;;;;2.72;2.50;;;4.50;99.90;;;;;;6195149;28;20049;-78
2021/10/15 03:49:48;;;;;;;3.83;2.60;;;5.50;99.90;;;;;;6179400;28;20625;-83
2021/10/15 03:52:48;;;;;;;3.05;2.67;;;6.40;99.90;;;;;;6194916;28;20066;-78
2021/10/15 03:55:49;;;;;;;3.97;2.90;;;;;;;;;;6194898;28;20037;-79
2021/10/15 03:58:50;;;;;;;2.97;2.45;;;4.30;99.90;;;;;;6194926;28;20530;-83
2021/10/15 04:01:50;;;;;;;2.90;2.30;;;4.00;99.90;;;;;;6194814;28;20042;-82
2021/10/15 04:04:51;;;;;;;6.93;2.50;;;;;;;;;;6194728;28;20026;-81
2021/10/15 04:07:52;;;;;;;2.83;2.53;;;4.20;99.90;;;;;;6196291;28;20024;-82
2021/10/15 04:10:53;;;;;;;3.55;2.50;;;4.10;99.90;;;;;;6178649;28;20030;-78
2021/10/15 04:13:53;;;;;;;3.13;2.72;;;4.20;99.90;;;;;;6194364;28;20022;-78
2021/10/15 04:16:54;;;;;;;3.70;2.72;;;4.60;99.90;;;;;;6194617;28;20089;-78
2021/10/15 04:19:54;;;;;;;5.82;3.15;;;5.60;99.90;;;;;;6194312;28;20029;-80
2021/10/15 04:22:55;;;;;;;3.10;2.25;;;4.50;99.90;;;;;;6193907;28;20030;-78
2021/10/15 04:25:55;;;;;;;2.53;2.22;;;4.70;99.90;;;;;;6177825;28;20340;-82
2021/10/15 04:28:56;;;;;;;7.22;5.53;;;6.10;99.90;;;;;;6195139;28;20036;-78
2021/10/15 04:31:57;;;;;;;22.63;17.80;;;5.20;99.90;;;;;;6194123;28;20157;-79
2021/10/15 04:34:57;;;;;;;4.13;3.20;;;4.20;99.90;;;;;;6194441;28;20054;-79
2021/10/15 04:37:58;;;;;;;5.38;4.25;;;5.40;99.90;;;;;;6194125;28;20022;-78
2021/10/15 04:40:58;;;;;;;6.78;5.40;;;5.50;99.90;;;;;;6177062;28;20026;-79
2021/10/15 04:43:59;;;;;;;11.13;8.32;;;4.40;99.90;;;;;;6159976;28;20054;-79
2021/10/15 04:47:00;;;;;;;3.88;2.97;;;4.00;99.90;;;;;;6145947;28;20038;-81
2021/10/15 04:50:00;;;;;;;9.07;4.68;;;4.60;99.90;;;;;;6159299;28;20041;-78
2021/10/15 04:53:01;;;;;;;5.43;3.85;;;;;;;;;;6178143;28;20031;-79
2021/10/15 04:56:02;;;;;;;4.50;3.40;;;4.20;99.90;;;;;;6152756;28;20042;-81
2021/10/15 04:59:03;;;;;;;5.45;3.03;;;4.10;99.90;;;;;;6154558;28;20027;-80
2021/10/15 05:02:03;;;;;;;4.60;3.80;;;3.90;99.90;;;;;;6173475;28;20035;-79
2021/10/15 05:05:04;;;;;;;11.68;9.27;;;4.00;99.90;;;;;;6167073;28;20039;-78
2021/10/15 05:08:05;;;;;;;5.82;5.00;;;3.90;99.90;;;;;;6168986;28;20359;-78
2021/10/15 05:11:05;;;;;;;6.63;5.00;;;3.90;99.90;;;;;;6145868;28;20027;-78
2021/10/15 05:14:06;;;;;;;6.13;4.63;;;3.70;99.90;;;;;;6173377;28;20122;-80
2021/10/15 05:17:07;;;;;;;6.20;4.38;;;;;;;;;;6151047;28;20064;-79
2021/10/15 05:20:10;;;;;;;6.45;4.43;;;3.80;99.90;;;;;;6172168;28;20331;-78
2021/10/15 05:23:10;;;;;;;;;;;3.70;99.90;;;;;;6170996;28;20378;-79
2021/10/15 05:26:11;;;;;;;6.05;4.53;;;3.90;99.90;;;;;;6149068;28;19966;-82
2021/10/15 05:29:11;;;;;;;14.75;9.73;;;3.80;99.90;;;;;;6161705;28;20031;-80
2021/10/15 05:32:12;;;;;;;5.00;3.30;;;;;;;;;;6148146;28;20458;-80
2021/10/15 05:35:13;;;;;;;4.07;3.67;;;4.00;99.90;;;;;;6163089;28;20151;-79
2021/10/15 05:38:14;;;;;;;6.97;3.92;;;;;;;;;;6165078;28;20378;-82
2021/10/15 05:41:15;;;;;;;9.20;6.38;;;;;;;;;;6159846;28;20031;-81
2021/10/15 05:44:16;;;;;;;5.80;3.65;;;;;;;;;;6187830;28;20050;-78
2021/10/15 05:47:17;;;;;;;4.65;3.55;;;4.00;99.90;;;;;;6161767;28;20147;-78
2021/10/15 05:50:18;;;;;;;4.68;3.80;;;;;;;;;;6168655;28;20031;-78
2021/10/15 05:53:20;;;;;;;4.75;3.40;;;;;;;;;;6150289;28;20030;-78
2021/10/15 06:00:01;;;;;;;4.93;3.30;;;3.90;99.90;;;;;;6099583;29;20095;-78
2021/10/15 06:03:02;;;;;;;8.30;4.00;;;;;;;;;;6083975;29;20139;-78
2021/10/15 06:06:59;;;;;;;7.70;4.72;;;;;;;;;;6068580;29;20028;-78
2021/10/15 06:16:04;;;;;;;8.25;3.28;;;4.80;99.90;;;;;;6086516;29;20052;-79
2021/10/15 06:19:07;;;;;;;5.35;4.40;;;4.40;99.90;;;;;;6077170;29;20035;-78
2021/10/15 06:22:07;;;;;;;5.55;4.70;;;4.40;99.90;;;;;;6066655;29;20094;-78
2021/10/15 06:25:08;;;;;;;4.18;3.40;;;5.10;99.90;;;;;;6067895;29;20047;-79
2021/10/15 06:28:10;;;;;;;6.18;4.47;;;4.60;99.90;;;;;;6099097;29;20481;-78
2021/10/15 06:31:11;;;;;;;6.72;3.40;;;4.60;99.90;;;;;;6131150;28;20035;-82
2021/10/15 06:34:11;;;;;;;9.30;6.85;;;4.60;99.90;;;;;;6164234;28;20536;-78
2021/10/15 06:37:12;;;;;;;4.97;3.97;;;5.10;99.90;;;;;;6150705;28;20031;-81
2021/10/15 06:40:13;;;;;;;4.78;3.38;;;5.20;99.90;;;;;;6150592;28;20102;-81
2021/10/15 06:43:13;;;;;;;10.07;4.72;;;5.50;99.90;;;;;;6156949;28;20077;-78
2021/10/15 06:46:14;;;;;;;6.00;3.80;;;5.50;99.90;;;;;;6198200;28;20034;-78
2021/10/15 06:49:14;;;;;;;5.07;3.60;;;5.50;99.90;;;;;;6198141;28;20026;-79
2021/10/15 06:52:15;;;;;;;4.25;3.22;;;5.40;99.90;;;;;;6195854;28;20487;-79
2021/10/15 06:55:20;;;;;;;6.57;3.70;;;5.90;99.90;;;;;;6196346;28;20481;-81
2021/10/15 06:58:21;;;;;;;4.05;3.30;;;8.00;99.90;;;;;;6179911;28;20031;-79
2021/10/15 07:01:21;;;;;;;7.70;3.83;;;6.30;99.90;;;;;;6197742;28;20046;-78
2021/10/15 07:04:22;;;;;;;5.95;3.70;;;7.50;99.90;;;;;;6196100;28;20026;-82
2021/10/15 07:07:22;;;;;;;5.47;2.80;;;8.40;99.90;;;;;;6197859;28;20089;-80
2021/10/15 07:10:23;;;;;;;3.85;3.10;;;9.00;99.90;;;;;;6197265;28;20479;-79
2021/10/15 07:13:24;;;;;;;3.47;2.63;;;9.60;99.90;;;;;;6196115;28;20034;-80
2021/10/15 07:16:25;;;;;;;5.20;2.58;;;10.40;99.90;;;;;;6196020;28;20046;-79
2021/10/15 07:19:26;;;;;;;4.80;2.60;;;10.90;99.90;;;;;;6195719;28;20041;-81
2021/10/15 07:22:26;;;;;;;2.90;2.60;;;11.30;99.90;;;;;;6197545;28;20034;-79
2021/10/15 07:25:27;;;;;;;2.90;2.60;;;11.70;99.90;;;;;;6195940;28;20085;-79
2021/10/15 07:28:27;;;;;;;3.83;2.38;;;12.40;99.90;;;;;;6179707;28;20034;-80
2021/10/15 07:31:28;;;;;;;3.80;2.20;;;12.60;99.90;;;;;;6195916;28;20030;-77
2021/10/15 07:34:29;;;;;;;3.30;2.55;;;12.80;99.90;;;;;;6195237;28;20058;-79
2021/10/15 07:37:29;;;;;;;2.97;2.50;;;13.30;99.90;;;;;;6197314;28;20105;-78
2021/10/15 07:40:30;;;;;;;4.95;2.97;;;13.40;99.90;;;;;;6179376;28;20092;-77
2021/10/15 07:43:31;;;;;;;3.20;2.67;;;;;;;;;;6178807;28;20057;-78
2021/10/15 07:46:31;;;;;;;7.90;2.97;;;14.40;99.90;;;;;;6179127;28;20124;-77
2021/10/15 07:49:32;;;;;;;2.83;2.53;;;14.40;99.90;;;;;;6195371;28;20030;-78
2021/10/15 07:52:32;;;;;;;3.15;2.60;;;14.50;99.90;;;;;;6196298;28;20122;-78
2021/10/15 07:55:33;;;;;;;2.67;2.47;;;14.40;99.90;;;;;;6195108;28;20559;-77
2021/10/15 07:58:33;;;;;;;2.90;2.20;;;14.70;99.90;;;;;;6178534;28;20072;-78
2021/10/15 08:01:34;;;;;;;5.63;4.10;;;15.00;99.90;;;;;;6196157;28;20058;-78
2021/10/15 08:04:35;;;;;;;2.95;2.63;;;15.00;99.90;;;;;;6194177;28;20481;-77
2021/10/15 08:07:36;;;;;;;2.15;1.98;;;15.40;99.90;;;;;;6195919;28;20040;-81
2021/10/15 08:10:36;;;;;;;2.78;2.10;;;15.60;99.90;;;;;;6194599;28;20046;-77
2021/10/15 08:13:37;;;;;;;4.30;3.90;;;15.70;99.90;;;;;;6194618;28;20084;-78
2021/10/15 08:16:38;;;;;;;2.25;1.80;;;16.10;99.90;;;;;;6196020;28;20045;-78
2021/10/15 08:19:39;;;;;;;9.93;5.38;;;16.50;99.90;;;;;;6194823;28;20433;-78
2021/10/15 08:22:40;;;;;;;2.75;2.53;;;16.60;97.20;;;;;;6194308;28;20034;-78
2021/10/15 08:25:41;;;;;;;3.78;2.35;;;16.90;96.80;;;;;;6194269;28;20513;-78
2021/10/15 08:28:44;;;;;;;4.70;2.40;;;17.30;96.40;;;;;;6178396;28;20026;-78
2021/10/15 08:31:45;;;;;;;4.78;2.70;;;17.40;97.80;;;;;;6178219;28;20026;-80
2021/10/15 08:34:45;;;;;;;2.83;2.55;;;17.60;94.50;;;;;;6193890;28;20484;-79
2021/10/15 08:37:46;;;;;;;4.28;2.92;;;17.70;95.90;;;;;;6195340;28;20449;-81
2021/10/15 08:40:47;;;;;;;4.07;3.42;;;18.20;92.70;;;;;;6195101;28;20400;-77
2021/10/15 08:43:48;;;;;;;4.35;2.90;;;18.50;92.30;;;;;;6177345;28;20038;-78
2021/10/15 08:46:48;;;;;;;2.58;2.38;;;18.60;91.00;;;;;;6193910;28;20038;-77
2021/10/15 08:49:49;;;;;;;2.55;2.20;;;19.00;90.50;;;;;;6177538;28;20041;-79
2021/10/15 08:52:49;;;;;;;10.25;8.40;;;19.30;88.70;;;;;;6194020;28;20484;-80
2021/10/15 08:55:50;;;;;;;3.42;3.13;;;19.60;88.00;;;;;;6177472;28;20046;-80
2021/10/15 08:59:07;;;;;;;3.80;3.08;;;20.00;99.50;;;;;;6194947;28;20022;-78
2021/10/15 09:02:12;;;;;;;3.28;1.98;;;20.10;85.20;;;;;;6161587;28;20022;-80
2021/10/15 09:05:14;;;;;;;3.90;2.22;;;20.90;81.10;;;;;;6177173;28;20508;-81
2021/10/15 09:08:15;;;;;;;3.13;2.35;;;21.80;97.60;;;;;;6193488;28;20429;-77
2021/10/15 09:11:28;;;;;;;2.35;2.15;;;21.10;91.50;;;;;;6193782;28;20092;-78
2021/10/15 09:14:29;;;;;;;3.70;2.58;;;21.40;91.40;;;;;;6177402;28;20034;-79
2021/10/15 09:17:33;;;;;;;3.58;2.10;;;21.60;90.30;;;;;;6194474;28;20459;-78
2021/10/15 09:20:35;;;;;;;2.40;2.20;;;;;;;;;;6177769;28;20101;-77
2021/10/15 09:23:48;;;;;;;4.43;2.10;;;21.80;98.20;;;;;;6194948;28;20113;-79
2021/10/15 09:26:49;;;;;;;2.40;2.20;;;;;;;;;;6176787;28;20019;-78
2021/10/15 09:29:52;;;;;;;4.15;2.20;;;22.40;87.10;;;;;;6193250;28;20030;-78
2021/10/15 09:33:02;;;;;;;2.35;2.15;;;22.40;86.80;;;;;;6176855;28;20109;-77
2021/10/15 09:36:06;;;;;;;2.22;2.00;;;22.30;94.90;;;;;;6193183;28;20499;-78
2021/10/15 09:39:24;;;;;;;3.95;2.20;;;21.80;95.50;;;;;;6176574;28;20030;-80
2021/10/15 09:42:27;;;;;;;3.08;2.25;;;22.20;95.90;;;;;;6193325;28;20030;-78
2021/10/15 09:45:48;;;;;;;2.63;2.22;;;22.10;86.10;;;;;;6176548;28;20481;-78
2021/10/15 09:48:51;;;;;;;3.70;2.47;;;22.20;94.20;;;;;;6160655;28;20030;-78
2021/10/15 09:51:57;;;;;;;2.63;2.25;;;22.40;94.90;;;;;;6177065;28;20072;-80
2021/10/15 09:55:05;;;;;;;4.70;2.35;;;22.50;88.80;;;;;;6176866;28;20150;-80
2021/10/15 09:58:13;;;;;;;3.17;2.70;;;22.60;82.30;;;;;;6194078;28;20039;-79
2021/10/15 10:01:14;;;;;;;8.10;2.67;;;22.60;72.70;;;;;;6192777;28;20098;-80
2021/10/15 10:04:14;;;;;;;3.00;2.30;;;22.10;73.80;;;;;;6192894;28;20085;-78
2021/10/15 10:07:15;;;;;;;7.00;3.13;;;21.90;75.30;;;;;;6176506;28;20054;-78
2021/10/15 10:10:26;;;;;;;5.07;4.15;;;22.10;73.10;;;;;;6176488;28;20034;-81
2021/10/15 10:13:27;;;;;;;7.32;4.07;;;22.00;73.20;;;;;;6192636;28;20018;-77
2021/10/15 10:16:29;;;;;;;5.53;4.25;;;22.00;73.30;;;;;;6192434;28;20053;-77
2021/10/15 10:19:29;;;;;;;;;;;22.40;71.80;;;;;;6193307;28;20030;-78
2021/10/15 10:22:30;;;;;;;6.95;3.90;;;22.40;71.90;;;;;;6176503;28;19956;-80
2021/10/15 10:25:31;;;;;;;7.93;4.22;;;22.30;71.80;;;;;;6192481;28;20034;-80
2021/10/15 10:28:31;;;;;;;7.40;4.03;;;22.50;72.20;;;;;;6194929;28;20113;-78
2021/10/15 10:31:32;;;;;;;4.80;3.72;;;22.60;70.50;;;;;;6180562;28;20129;-82
2021/10/15 10:34:33;;;;;;;5.25;4.22;;;22.50;71.90;;;;;;6196754;28;20452;-79
2021/10/15 10:37:34;;;;;;;5.95;4.80;;;22.50;70.90;;;;;;6195474;28;20089;-76
2021/10/15 10:40:34;;;;;;;6.15;4.60;;;22.30;70.40;;;;;;6180145;28;20042;-78
2021/10/15 10:43:44;;;;;;;6.72;4.75;;;22.20;71.50;;;;;;6179203;28;20046;-79
2021/10/15 10:47:05;;;;;;;7.13;4.75;;;22.10;71.60;;;;;;6197835;28;20461;-80
2021/10/15 10:50:11;;;;;;;8.30;4.30;;;22.10;72.00;;;;;;6181041;28;20056;-80
2021/10/15 10:53:12;;;;;;;6.05;4.07;;;22.00;71.70;;;;;;6196144;28;20464;-82
2021/10/15 10:56:39;;;;;;;9.15;5.25;;;22.00;72.00;;;;;;6179849;28;20043;-82
2021/10/15 10:59:40;;;;;;;4.35;3.88;;;;;;;;;;6195325;28;20030;-82
2021/10/15 11:02:45;;;;;;;7.20;4.30;;;21.60;72.70;;;;;;6179592;28;20030;-82
2021/10/15 11:05:51;;;;;;;9.38;4.50;;;21.60;73.50;;;;;;6179689;28;20058;-82
2021/10/15 11:08:53;;;;;;;5.80;4.10;;;21.30;73.10;;;;;;6178439;28;20030;-81
2021/10/15 11:11:54;;;;;;;7.25;4.55;;;21.50;74.50;;;;;;6163458;28;20358;-81
2021/10/15 11:15:04;;;;;;;6.88;4.43;;;21.00;91.70;;;;;;6179340;28;20057;-81
2021/10/15 11:18:04;;;;;;;4.90;4.32;;;20.90;90.00;;;;;;6196031;28;20114;-82
2021/10/15 11:21:11;;;;;;;5.57;4.30;;;20.80;95.80;;;;;;6179203;28;20058;-81
2021/10/15 11:24:13;;;;;;;5.80;4.13;;;20.90;85.40;;;;;;6196010;28;20026;-81
2021/10/15 11:27:15;;;;;;;8.05;4.80;;;20.70;86.50;;;;;;6195834;28;20117;-81
2021/10/15 11:30:16;;;;;;;6.45;4.70;;;;;;;;;;6179356;28;20041;-81
2021/10/15 11:33:18;;;;;;;6.03;4.43;;;20.20;86.80;;;;;;6194690;28;20458;-82
2021/10/15 11:36:20;;;;;;;14.65;5.57;;;20.60;95.40;;;;;;6179208;28;20050;-82
2021/10/15 11:39:21;;;;;;;5.47;4.05;;;;;;;;;;6179237;28;20029;-81
2021/10/15 11:42:22;;;;;;;5.00;4.50;;;20.60;96.10;;;;;;6179265;28;20062;-82
2021/10/15 11:45:30;;;;;;;9.25;4.97;;;20.60;87.40;;;;;;6164086;28;20052;-82
2021/10/15 11:48:37;;;;;;;5.47;3.97;;;20.60;84.70;;;;;;6163793;28;20493;-81
2021/10/15 11:51:37;;;;;;;5.35;4.38;;;20.50;76.50;;;;;;6153741;28;20118;-81
2021/10/15 11:54:38;;;;;;;10.27;4.72;;;20.60;76.40;;;;;;6136459;28;20038;-81
2021/10/15 11:57:39;;;;;;;5.32;4.32;;;;;;;;;;6185601;28;20030;-82
2021/10/15 12:01:02;;;;;;;5.50;4.80;;;20.40;75.80;;;;;;6158519;28;20127;-82
2021/10/15 12:04:09;;;;;;;6.22;4.40;;;20.30;77.40;;;;;;6165167;28;20030;-82
2021/10/15 12:07:10;;;;;;;5.82;4.70;;;20.20;77.00;;;;;;6162410;28;20042;-81
2021/10/15 12:10:10;;;;;;;6.20;4.57;;;20.10;78.50;;;;;;6163647;28;20521;-82
2021/10/15 12:13:11;;;;;;;6.47;5.22;;;20.00;79.70;;;;;;6186003;28;20043;-82
2021/10/15 12:16:19;;;;;;;8.27;4.70;;;19.80;80.10;;;;;;6181029;28;20170;-82
2021/10/15 12:19:29;;;;;;;4.53;4.03;;;19.50;78.60;;;;;;6157147;28;20023;-83
2021/10/15 12:22:30;;;;;;;8.00;5.25;;;19.50;78.20;;;;;;6173071;28;20373;-82
2021/10/15 12:25:30;;;;;;;7.30;5.07;;;19.40;77.10;;;;;;6158126;28;20131;-80
2021/10/15 12:28:32;;;;;;;9.13;5.05;;;19.30;78.80;;;;;;6156665;28;20366;-79
2021/10/15 12:31:35;;;;;;;6.60;5.13;;;19.40;92.00;;;;;;6173538;28;20474;-83
2021/10/15 12:35:06;;;;;;;5.25;4.65;;;19.40;78.60;;;;;;6154302;28;20035;-86
2021/10/15 12:38:07;;;;;;;6.20;4.95;;;19.10;79.70;;;;;;6164214;28;20165;-81
2021/10/15 12:41:09;;;;;;;7.57;4.95;;;19.10;80.30;;;;;;6156783;28;20058;-80
2021/10/15 12:44:31;;;;;;;7.82;5.35;;;19.00;79.40;;;;;;6177750;28;20051;-81
2021/10/15 12:47:32;;;;;;;5.03;4.53;;;21.50;79.50;;;;;;6169565;28;20035;-84
2021/10/15 12:50:37;;;;;;;6.30;4.90;;;21.30;82.00;;;;;;6168935;28;20058;-83
2021/10/15 12:53:42;;;;;;;5.30;4.43;;;19.40;92.50;;;;;;6185363;28;20120;-81
2021/10/15 12:56:43;;;;;;;7.63;4.75;;;19.10;79.30;;;;;;6184740;28;20042;-80
2021/10/15 13:00:06;;;;;;;6.25;5.65;;;19.00;78.90;;;;;;6182777;28;20023;-82
2021/10/15 13:03:07;;;;;;;6.38;5.50;;;19.20;79.90;;;;;;6185039;28;20453;-81
2021/10/15 13:06:08;;;;;;;8.55;5.70;;;19.20;79.90;;;;;;6170500;28;20038;-79
2021/10/15 13:09:08;;;;;;;8.43;5.25;;;19.20;78.80;;;;;;6185596;28;20432;-78
2021/10/15 13:12:09;;;;;;;8.02;5.15;;;19.00;79.90;;;;;;6185120;28;20613;-80
2021/10/15 13:15:09;;;;;;;6.63;5.55;;;18.80;81.50;;;;;;6185305;28;20102;-81
2021/10/15 13:18:10;;;;;;;6.97;5.72;;;18.70;80.60;;;;;;6185292;28;21009;-86
2021/10/15 13:21:11;;;;;;;6.85;5.60;;;18.50;81.90;;;;;;6169566;28;20062;-85
2021/10/15 13:24:12;;;;;;;8.40;4.93;;;18.50;81.30;;;;;;6169147;28;20073;-80
2021/10/15 13:27:12;;;;;;;5.75;4.95;;;18.50;82.30;;;;;;6169134;28;20374;-83
2021/10/15 13:30:13;;;;;;;7.85;5.30;;;18.50;82.80;;;;;;6169774;28;20479;-80
2021/10/15 13:33:17;;;;;;;6.50;5.63;;;18.50;82.80;;;;;;6169143;28;20058;-82
2021/10/15 13:36:18;;;;;;;7.30;5.03;;;18.50;81.90;;;;;;6184939;28;20041;-82
2021/10/15 13:39:20;;;;;;;7.35;6.13;;;18.50;81.60;;;;;;6184212;28;20031;-82
2021/10/15 13:45:51;;;;;;;14.63;6.00;;;18.20;84.40;;;;;;6159135;28;20054;-84
2021/10/15 13:52:15;;;;;;;6.68;5.50;;;18.10;83.40;;;;;;6170087;28;20038;-83
2021/10/15 13:55:16;;;;;;;5.97;5.03;;;18.00;83.80;;;;;;6185128;28;20085;-83
2021/10/15 13:58:23;;;;;;;8.60;5.85;;;18.00;84.30;;;;;;6184104;28;20031;-83
2021/10/15 14:01:31;;;;;;;8.05;4.82;;;18.00;85.40;;;;;;6184089;28;20484;-84
2021/10/15 14:04:46;;;;;;;6.35;5.07;;;18.00;86.70;;;;;;6187976;28;20031;-83
2021/10/15 14:07:46;;;;;;;7.20;5.50;;;17.90;84.60;;;;;;6173228;28;20054;-83
2021/10/15 14:10:47;;;;;;;7.30;5.57;;;17.80;84.50;;;;;;6189972;28;20035;-82
2021/10/15 14:13:48;;;;;;;8.07;5.75;;;17.80;86.80;;;;;;6173454;28;20038;-84
2021/10/15 14:16:48;;;;;;;7.20;6.05;;;17.80;87.50;;;;;;6189494;28;20042;-82
2021/10/15 14:19:50;;;;;;;6.75;5.85;;;17.70;85.40;;;;;;6173071;28;20073;-82
2021/10/15 14:22:50;;;;;;;7.70;4.85;;;17.90;95.50;;;;;;6172965;28;20093;-83
2021/10/15 14:25:52;;;;;;;9.82;4.95;;;17.60;85.80;;;;;;6173982;28;20035;-83
2021/10/15 14:28:52;;;;;;;5.30;4.60;;;17.50;86.40;;;;;;6188992;28;20416;-83
2021/10/15 14:31:53;;;;;;;7.20;4.90;;;18.00;96.10;;;;;;6172830;28;20023;-82
2021/10/15 14:34:53;;;;;;;6.22;5.10;;;17.50;86.70;;;;;;6172858;28;20050;-83
2021/10/15 14:37:54;;;;;;;10.40;5.00;;;17.50;86.10;;;;;;6189110;28;20421;-82
2021/10/15 14:40:55;;;;;;;5.88;4.97;;;17.40;85.50;;;;;;6172330;28;20667;-83
2021/10/15 14:43:56;;;;;;;10.68;5.38;;;17.30;81.80;;;;;;6196251;28;20057;-83
2021/10/15 14:46:56;;;;;;;5.43;4.40;;;17.20;85.20;;;;;;6196721;28;20023;-82
2021/10/15 14:49:57;;;;;;;5.95;5.30;;;17.10;87.70;;;;;;6164421;28;20034;-84
2021/10/15 14:52:57;;;;;;;5.55;4.88;;;17.20;86.30;;;;;;6179679;28;20019;-82
2021/10/15 14:55:58;;;;;;;9.82;5.70;;;17.30;85.50;;;;;;6196242;28;20041;-83
2021/10/15 14:58:59;;;;;;;7.80;5.38;;;17.00;86.00;;;;;;6180330;28;20100;-82
2021/10/15 15:02:00;;;;;;;6.20;5.13;;;;;;;;;;6195876;28;20022;-83
2021/10/15 15:05:00;;;;;;;7.68;5.07;;;16.80;86.40;;;;;;6179986;28;20038;-82
2021/10/15 15:08:02;;;;;;;9.02;4.85;;;16.70;88.00;;;;;;6179726;28;20023;-83
2021/10/15 15:11:03;;;;;;;7.53;5.63;;;16.60;89.80;;;;;;6163923;28;20050;-84
2021/10/15 15:14:03;;;;;;;6.97;4.80;;;16.60;89.60;;;;;;6162729;28;20022;-82
2021/10/15 15:17:04;;;;;;;5.25;4.75;;;16.50;89.60;;;;;;6163673;28;20046;-83
2021/10/15 15:20:07;;;;;;;7.78;5.30;;;16.50;97.40;;;;;;6180369;28;20026;-82
2021/10/15 15:23:08;;;;;;;8.43;5.38;;;16.40;89.40;;;;;;6179349;28;20030;-83
2021/10/15 15:26:08;;;;;;;4.80;4.20;;;16.40;90.50;;;;;;6179642;28;20022;-85
2021/10/15 15:29:12;;;;;;;7.18;4.90;;;16.40;90.20;;;;;;6179616;28;20060;-82
2021/10/15 15:32:12;;;;;;;8.20;5.60;;;16.30;90.30;;;;;;6179416;28;20022;-84
2021/10/15 15:35:14;;;;;;;10.52;7.05;;;16.20;90.60;;;;;;6178914;28;20089;-83
2021/10/15 15:38:15;;;;;;;7.75;4.90;;;16.10;91.40;;;;;;6179416;28;20032;-83
2021/10/15 15:41:16;;;;;;;8.68;5.00;;;16.00;92.10;;;;;;6178951;28;20030;-83
2021/10/15 15:44:22;;;;;;;8.38;5.43;;;15.90;92.40;;;;;;6178786;28;20056;-83
2021/10/15 15:47:28;;;;;;;6.15;4.57;;;15.80;93.00;;;;;;6195286;28;20044;-84
2021/10/15 15:50:29;;;;;;;7.05;4.97;;;15.70;94.10;;;;;;6180144;28;20026;-83
2021/10/15 15:53:29;;;;;;;6.22;5.10;;;15.60;95.00;;;;;;6178614;28;20117;-83
2021/10/15 15:56:30;;;;;;;13.00;5.35;;;15.30;99.90;;;;;;6162486;28;20034;-82
2021/10/15 15:59:31;;;;;;;5.88;4.90;;;15.10;99.90;;;;;;6195342;28;20077;-84
2021/10/15 16:02:31;;;;;;;13.48;5.18;;;15.10;99.90;;;;;;6194530;28;20140;-85
2021/10/15 16:05:32;;;;;;;6.22;4.45;;;15.30;99.90;;;;;;6194891;28;20045;-84
2021/10/15 16:08:33;;;;;;;9.95;5.05;;;15.10;99.90;;;;;;6177998;28;20462;-79
2021/10/15 16:11:34;;;;;;;11.32;4.60;;;15.00;99.90;;;;;;6178485;28;20041;-79
2021/10/15 16:14:34;;;;;;;6.95;4.15;;;14.80;99.90;;;;;;6178447;28;20090;-81
2021/10/15 16:17:36;;;;;;;6.22;4.75;;;;;;;;;;6194811;28;20027;-79
2021/10/15 16:20:37;;;;;;;31.88;7.53;;;;;;;;;;6177323;28;20107;-79